Aeroporto :
LOGIN :

Iscrizione | Disclaimer

   EN    FR    IT 

 










Sommario :    VFR   VFR Marginale   IFR   IFR Intensivo   IFR Molto Intensivo
Visibilità : 
Base nubi : 
>= 8 km
>= 3000ft
5 / 8 km
1000 / 3000 ft
1500m / 5 km
500 / 1000 ft
800 / 1500m
200 / 500 ft
< 800m
< 200 ft
Simboli :   Temporali  Nebbia  Neve Forte  Precipitazioni Forti  Vento > 20 kt
SIGMETs :   Varie  Temporali  Ghiacco  Turbolenza  Onda orograficha  Ceneri Vulcaniche






- Altitudine del aeroporto : 280 ft
- Codice IATA : FAE


EKVG - Vagar

ULTIMO METAR :
  • 211550Z AUTO 26023G45KT 230V290 9999 BKN021/// 05/M01 Q0971

METARs OBSOLETI :
  • 211520Z AUTO 27023G39KT 240V300 9999 BKN029/// 04/M00 Q0970
  • 211450Z AUTO 27020G44KT 220V310 9999 FEW027/// BKN032/// 05/M00 Q0971
  • 211420Z AUTO 27019G52KT 220V310 9999 BKN015/// 04/M00 Q0971
  • 211350Z AUTO 27020G36KT 210V300 9999 -RA BKN023/// 03/M01 Q0971
  • 211320Z AUTO 26016G33KT 230V320 9999 FEW028/// 05/00 Q0970

TAF TAF EKVG
Valido dal 21 a 15 ore il 21 a 21 ore UTC


211411Z 2115/2121 24030G45KT 9999 -SHRA SCT020TCU BKN030
TEMPO 2115/2121 24038G55KT 4000 SHRAGS BKN010CB



MetMap, La meteo Aeronautica in un colpo d'occhio ! - Copyright ORBIFLY Dicembre 2007 - Disclaimer

ORBIFLY MET'MAP TEAM :

Programmazione e sviluppo : Alexandra Zaïnal
Concezione : Baudouin d'Aumeries
Aiuto per la programmazione : Marc-Olivier Méhu
Supporto tecnico e logistico : Manuel Goepfert
Aiuto per la traduzione : Arnaldo La Scala

Contatto : metmap@orbifly.com




FONTI E CREDITI :

   NOAA